createdAt,value
2023-02-12T00:00:26.960Z,46.85
2023-02-12T00:02:29.361Z,47.35
2023-02-12T00:04:31.622Z,47.26
2023-02-12T00:06:33.661Z,47.05
2023-02-12T00:08:36.222Z,47.34
2023-02-12T00:10:43.202Z,47.32
2023-02-12T00:12:45.413Z,47.31
2023-02-12T00:14:47.825Z,47.59
2023-02-12T00:16:50.388Z,47.28
2023-02-12T00:18:54.087Z,47.33
2023-02-12T00:20:59.880Z,47.42
2023-02-12T00:23:01.988Z,47.17
2023-02-12T00:25:04.929Z,47.18
2023-02-12T00:27:06.936Z,47.39
2023-02-12T00:29:13.288Z,46.96
2023-02-12T00:31:18.798Z,47.04
2023-02-12T00:33:23.635Z,47.28
2023-02-12T00:35:28.091Z,47.14
2023-02-12T00:37:30.937Z,47.33
2023-02-12T00:39:33.118Z,47.98
2023-02-12T00:41:35.113Z,47.48
2023-02-12T00:43:37.302Z,47.36
2023-02-12T00:45:39.702Z,47.48
2023-02-12T00:47:41.771Z,47.47
2023-02-12T00:49:43.708Z,47.11
2023-02-12T00:51:46.008Z,47.36
2023-02-12T00:53:48.071Z,47.46
2023-02-12T00:55:50.395Z,47.37
2023-02-12T00:57:52.432Z,47.49
2023-02-12T00:59:54.493Z,47.40
2023-02-12T01:01:56.850Z,47.42
2023-02-12T01:03:59.728Z,47.65
2023-02-12T01:06:02.177Z,47.73
2023-02-12T01:08:04.977Z,47.60
2023-02-12T01:10:08.236Z,47.69
2023-02-12T01:12:10.614Z,47.45
2023-02-12T01:14:12.828Z,47.33
2023-02-12T01:16:17.778Z,47.54
2023-02-12T01:18:20.155Z,47.84
2023-02-12T01:20:25.306Z,47.23
2023-02-12T01:22:28.268Z,47.68
2023-02-12T01:24:30.800Z,47.47
2023-02-12T01:26:33.905Z,47.59
2023-02-12T01:28:40.630Z,47.60
2023-02-12T01:30:44.208Z,47.51
2023-02-12T01:32:46.496Z,47.93
2023-02-12T01:34:49.289Z,47.90
2023-02-12T01:36:51.350Z,47.68
2023-02-12T01:38:53.453Z,48.14
2023-02-12T01:41:03.396Z,47.80
2023-02-12T01:43:07.660Z,48.23
2023-02-12T01:45:15.414Z,48.19
2023-02-12T01:47:18.676Z,48.08
2023-02-12T01:49:43.592Z,48.56
2023-02-12T01:51:48.890Z,48.50
2023-02-12T01:53:54.880Z,48.57
2023-02-12T01:55:59.939Z,48.40
2023-02-12T01:58:03.196Z,48.78
2023-02-12T02:00:10.664Z,48.46
2023-02-12T02:02:18.961Z,48.72
2023-02-12T02:04:29.067Z,48.57
2023-02-12T02:06:49.684Z,48.66
2023-02-12T02:08:52.081Z,48.55
2023-02-12T02:10:57.262Z,48.74
2023-02-12T02:13:17.604Z,48.86
2023-02-12T02:15:20.022Z,48.66
2023-02-12T02:17:57.230Z,48.78
2023-02-12T02:20:29.782Z,48.79
2023-02-12T02:22:43.959Z,48.72
2023-02-12T02:25:23.687Z,49.28
2023-02-12T02:27:44.861Z,49.05
2023-02-12T02:30:22.851Z,49.21
2023-02-12T02:32:35.866Z,49.26
2023-02-12T02:34:46.404Z,49.47
2023-02-12T02:37:01.521Z,49.40
2023-02-12T02:39:24.610Z,49.79
2023-02-12T02:41:33.968Z,49.26
2023-02-12T02:43:43.324Z,49.42
2023-02-12T02:45:49.616Z,49.38
2023-02-12T02:48:03.829Z,49.46
2023-02-12T02:50:16.082Z,49.46
2023-02-12T02:52:34.270Z,49.46
2023-02-12T02:54:45.920Z,49.68
2023-02-12T02:56:51.341Z,49.23
2023-02-12T02:59:21.050Z,49.74
2023-02-12T03:01:32.285Z,49.19
2023-02-12T03:03:55.021Z,49.84
2023-02-12T03:06:04.466Z,49.93
2023-02-12T03:08:11.205Z,49.84
2023-02-12T03:10:27.768Z,49.97
2023-02-12T03:12:51.064Z,49.81
2023-02-12T03:15:01.857Z,49.87
2023-02-12T03:17:21.799Z,50.38
2023-02-12T03:19:27.303Z,49.71
2023-02-12T03:21:54.988Z,50.24
2023-02-12T03:24:08.141Z,50.33
2023-02-12T03:26:15.671Z,50.35
2023-02-12T03:28:27.382Z,49.95
2023-02-12T03:30:42.224Z,50.09
2023-02-12T03:33:35.964Z,50.95
2023-02-12T03:35:51.683Z,50.77
2023-02-12T03:38:04.209Z,50.72
2023-02-12T03:40:22.444Z,50.60
2023-02-12T03:42:29.633Z,50.42
2023-02-12T03:44:41.197Z,51.01
2023-02-12T03:47:03.206Z,50.73
2023-02-12T03:49:12.580Z,50.97
2023-02-12T03:51:27.688Z,51.12
2023-02-12T03:53:32.585Z,50.74
2023-02-12T03:55:38.606Z,50.63
2023-02-12T03:57:45.299Z,50.70
2023-02-12T03:59:48.266Z,50.61
2023-02-12T04:01:52.999Z,50.60
2023-02-12T04:03:56.212Z,50.87
2023-02-12T04:05:58.306Z,50.68
2023-02-12T04:08:02.742Z,50.84
2023-02-12T04:10:05.005Z,50.74
2023-02-12T04:12:38.205Z,50.83
2023-02-12T04:15:08.083Z,51.74
2023-02-12T04:17:19.092Z,51.47
2023-02-12T04:19:35.079Z,51.22
2023-02-12T04:22:12.326Z,50.95
2023-02-12T04:24:29.280Z,51.70
2023-02-12T04:26:48.094Z,51.15
2023-02-12T04:29:01.953Z,51.23
2023-02-12T04:31:13.292Z,51.16
2023-02-12T04:33:21.591Z,50.83
2023-02-12T04:35:35.960Z,51.00
2023-02-12T04:37:49.136Z,51.10
2023-02-12T04:39:53.521Z,51.16
2023-02-12T04:42:00.050Z,51.08
2023-02-12T04:44:15.217Z,51.39
2023-02-12T04:46:17.581Z,50.90
2023-02-12T04:48:20.360Z,50.56
2023-02-12T04:50:22.972Z,50.91
2023-02-12T04:52:28.009Z,50.82
2023-02-12T04:54:29.963Z,50.63
2023-02-12T04:56:32.276Z,50.99
2023-02-12T04:58:37.324Z,50.95
2023-02-12T05:00:39.583Z,50.89
2023-02-12T05:02:41.951Z,51.39
2023-02-12T05:04:44.055Z,50.79
2023-02-12T05:06:46.757Z,50.92
2023-02-12T05:08:53.266Z,50.87
2023-02-12T05:10:55.332Z,50.79
2023-02-12T05:12:57.358Z,51.11
2023-02-12T05:14:59.691Z,51.03
2023-02-12T05:17:02.293Z,51.34
2023-02-12T05:19:04.546Z,51.46
2023-02-12T05:21:06.641Z,51.41
2023-02-12T05:23:08.842Z,51.36
2023-02-12T05:25:12.074Z,51.29
2023-02-12T05:27:14.260Z,51.66
2023-02-12T05:29:16.307Z,51.46
2023-02-12T05:31:21.413Z,51.70
2023-02-12T05:33:24.186Z,51.42
2023-02-12T05:35:26.372Z,51.60
2023-02-12T05:37:28.515Z,52.11
2023-02-12T05:39:30.628Z,51.84
2023-02-12T05:41:35.393Z,51.57
2023-02-12T05:43:37.773Z,51.67
2023-02-12T05:45:41.649Z,51.88
2023-02-12T05:47:43.815Z,52.15
2023-02-12T05:49:45.792Z,51.87
2023-02-12T05:51:47.944Z,52.28
2023-02-12T05:53:52.163Z,51.93
2023-02-12T05:55:54.582Z,51.73
2023-02-12T05:57:56.908Z,52.27
2023-02-12T05:59:58.989Z,52.04
2023-02-12T06:02:01.189Z,51.90
2023-02-12T06:04:06.044Z,52.11
2023-02-12T06:06:10.651Z,51.56
2023-02-12T06:08:13.151Z,51.79
2023-02-12T06:10:15.203Z,52.40
2023-02-12T06:12:17.326Z,52.04
2023-02-12T06:14:20.950Z,51.94
2023-02-12T06:16:27.984Z,52.18
2023-02-12T06:18:30.772Z,51.88
2023-02-12T06:20:33.139Z,52.07
2023-02-12T06:22:35.381Z,52.06
2023-02-12T06:24:37.396Z,51.80
2023-02-12T06:26:39.612Z,51.70
2023-02-12T06:28:41.813Z,51.74
2023-02-12T06:30:44.254Z,51.99
2023-02-12T06:32:50.257Z,51.59
2023-02-12T06:34:52.822Z,51.47
2023-02-12T06:36:54.913Z,51.57
2023-02-12T06:38:57.839Z,51.68
2023-02-12T06:41:03.083Z,51.63
2023-02-12T06:43:05.582Z,51.64
2023-02-12T06:45:08.074Z,51.59
2023-02-12T06:47:10.196Z,51.62
2023-02-12T06:49:13.353Z,51.78
2023-02-12T06:51:22.153Z,51.76
2023-02-12T06:53:24.231Z,52.03
2023-02-12T06:55:26.476Z,52.56
2023-02-12T06:57:30.220Z,52.55
2023-02-12T06:59:32.862Z,52.74
2023-02-12T07:01:34.999Z,52.52
2023-02-12T07:03:38.050Z,52.42
2023-02-12T07:05:42.985Z,52.35
2023-02-12T07:07:45.212Z,52.33
2023-02-12T07:09:47.266Z,52.62
2023-02-12T07:11:49.560Z,52.09
2023-02-12T07:13:51.711Z,52.19
2023-02-12T07:15:54.178Z,51.70
2023-02-12T07:17:56.370Z,51.91
2023-02-12T07:20:01.491Z,51.84
2023-02-12T07:22:03.800Z,51.61
2023-02-12T07:24:06.073Z,51.42
2023-02-12T07:26:11.389Z,51.04
2023-02-12T07:28:13.933Z,51.13
2023-02-12T07:30:16.241Z,50.67
2023-02-12T07:32:18.272Z,50.91
2023-02-12T07:34:20.592Z,50.88
2023-02-12T07:36:24.643Z,50.31
2023-02-12T07:38:26.853Z,49.49
2023-02-12T07:40:28.934Z,50.36
2023-02-12T07:42:31.405Z,50.33
2023-02-12T07:44:39.446Z,50.95
2023-02-12T07:46:48.626Z,50.49
2023-02-12T07:48:51.709Z,50.53
2023-02-12T07:50:53.807Z,50.75
2023-02-12T07:52:55.868Z,50.59
2023-02-12T07:55:01.159Z,50.64
2023-02-12T07:57:03.729Z,50.34
2023-02-12T07:59:08.122Z,50.89
2023-02-12T08:01:29.529Z,51.35
2023-02-12T08:03:31.699Z,50.59
2023-02-12T08:05:33.838Z,50.67
2023-02-12T08:07:36.119Z,50.02
2023-02-12T08:09:38.138Z,50.56
2023-02-12T08:11:41.405Z,50.04
2023-02-12T08:13:44.677Z,50.39
2023-02-12T08:15:46.787Z,50.29
2023-02-12T08:17:48.917Z,49.98
2023-02-12T08:19:51.053Z,50.16
2023-02-12T08:21:54.758Z,50.23
2023-02-12T08:23:58.560Z,50.35
2023-02-12T08:26:29.214Z,50.12
2023-02-12T08:28:31.490Z,49.83
2023-02-12T08:30:33.846Z,49.73
2023-02-12T08:32:35.964Z,49.83
2023-02-12T08:34:38.024Z,49.85
2023-02-12T08:36:40.756Z,49.58
2023-02-12T08:38:44.746Z,49.53
2023-02-12T08:40:46.853Z,49.92
2023-02-12T08:42:48.893Z,50.03
2023-02-12T08:44:51.041Z,49.60
2023-02-12T08:46:55.659Z,49.96
2023-02-12T08:48:59.781Z,50.21
2023-02-12T08:51:07.880Z,50.21
2023-02-12T08:53:09.942Z,50.74
2023-02-12T08:55:12.113Z,50.29
2023-02-12T08:57:14.188Z,50.13
2023-02-12T08:59:17.335Z,49.92
2023-02-12T09:01:21.860Z,49.69
2023-02-12T09:03:24.716Z,49.89
2023-02-12T09:05:27.359Z,49.49
2023-02-12T09:07:29.381Z,48.80
2023-02-12T09:09:31.542Z,49.06
2023-02-12T09:11:35.451Z,48.78
2023-02-12T09:13:37.646Z,48.97
2023-02-12T09:15:45.169Z,48.50
2023-02-12T09:17:47.284Z,48.69
2023-02-12T09:19:49.331Z,48.85
2023-02-12T09:21:56.572Z,48.16
2023-02-12T09:23:59.361Z,48.50
2023-02-12T09:26:05.067Z,48.19
2023-02-12T09:28:07.406Z,48.37
2023-02-12T09:30:10.211Z,48.02
2023-02-12T09:32:12.519Z,48.14
2023-02-12T09:34:14.696Z,48.05
2023-02-12T09:36:17.921Z,47.82
2023-02-12T09:38:20.091Z,48.20
2023-02-12T09:40:45.240Z,48.75
2023-02-12T09:43:02.512Z,48.05
2023-02-12T09:45:45.501Z,47.86
2023-02-12T09:48:28.445Z,47.83
2023-02-12T09:50:44.990Z,47.64
2023-02-12T09:52:50.325Z,48.27
2023-02-12T09:54:53.821Z,48.10
2023-02-12T09:56:59.091Z,48.12
2023-02-12T09:59:04.827Z,48.30
2023-02-12T10:01:14.971Z,47.68
2023-02-12T10:03:18.360Z,47.73
2023-02-12T10:05:36.807Z,48.11
2023-02-12T10:08:12.922Z,47.96
2023-02-12T10:10:53.659Z,47.77
2023-02-12T10:13:08.979Z,48.01
2023-02-12T10:16:00.508Z,48.83
2023-02-12T10:18:33.835Z,48.32
2023-02-12T10:20:48.334Z,47.81
2023-02-12T10:23:27.944Z,48.62
2023-02-12T10:25:54.769Z,48.76
2023-02-12T10:28:07.773Z,48.00
2023-02-12T10:30:54.642Z,47.58
2023-02-12T10:33:03.997Z,47.39
2023-02-12T10:35:18.437Z,47.88
2023-02-12T10:37:52.735Z,48.11
2023-02-12T10:40:01.752Z,48.10
2023-02-12T10:42:44.158Z,48.01
2023-02-12T10:44:47.158Z,48.03
2023-02-12T10:46:49.729Z,48.00
2023-02-12T10:48:58.142Z,47.63
2023-02-12T10:51:09.260Z,47.14
2023-02-12T10:53:23.189Z,47.42
2023-02-12T10:55:28.753Z,47.47
2023-02-12T10:57:31.856Z,48.07
2023-02-12T10:59:35.059Z,48.25
2023-02-12T11:01:39.525Z,47.51
2023-02-12T11:03:41.554Z,47.58
2023-02-12T11:05:44.726Z,47.91
2023-02-12T11:07:49.890Z,48.43
2023-02-12T11:09:54.758Z,47.99
2023-02-12T11:11:58.789Z,47.95
2023-02-12T11:14:07.600Z,47.70
2023-02-12T11:16:10.801Z,47.96
2023-02-12T11:18:26.491Z,47.51
2023-02-12T11:20:33.037Z,47.66
2023-02-12T11:22:36.486Z,47.51
2023-02-12T11:24:39.011Z,47.76
2023-02-12T11:26:42.512Z,47.36
2023-02-12T11:28:55.493Z,46.93
2023-02-12T11:31:03.616Z,47.57
2023-02-12T11:33:35.007Z,47.40
2023-02-12T11:35:37.293Z,47.25
2023-02-12T11:37:44.989Z,46.99
2023-02-12T11:39:50.467Z,47.17
2023-02-12T11:41:56.430Z,46.63
2023-02-12T11:44:02.575Z,46.63
2023-02-12T11:46:06.775Z,46.92
2023-02-12T11:48:22.903Z,46.62
2023-02-12T11:50:29.767Z,46.90
2023-02-12T11:52:34.956Z,46.89
2023-02-12T11:54:46.315Z,46.59
2023-02-12T11:56:48.805Z,47.00
2023-02-12T11:58:51.945Z,47.23
2023-02-12T12:01:13.027Z,45.98
2023-02-12T12:03:35.521Z,46.38
2023-02-12T12:05:45.318Z,46.92
2023-02-12T12:07:56.367Z,45.78
2023-02-12T12:10:01.688Z,45.52
2023-02-12T12:12:07.133Z,45.31
2023-02-12T12:14:33.548Z,44.98
2023-02-12T12:17:13.309Z,45.13
2023-02-12T12:19:52.530Z,45.04
2023-02-12T12:21:57.928Z,44.96
2023-02-12T12:24:11.449Z,45.30
2023-02-12T12:26:22.212Z,45.97
2023-02-12T12:28:40.922Z,45.33
2023-02-12T12:30:43.224Z,45.75
2023-02-12T12:32:49.905Z,45.72
2023-02-12T12:34:52.741Z,45.95
2023-02-12T12:37:23.858Z,45.74
2023-02-12T12:39:33.718Z,45.24
2023-02-12T12:42:03.899Z,45.09
2023-02-12T12:44:17.948Z,44.60
2023-02-12T12:47:01.309Z,45.20
2023-02-12T12:49:24.955Z,44.50
2023-02-12T12:51:45.879Z,44.77
2023-02-12T12:54:15.891Z,44.67
2023-02-12T12:56:26.836Z,44.86
2023-02-12T12:58:47.142Z,44.81
2023-02-12T13:01:18.193Z,44.58
2023-02-12T13:03:32.035Z,44.70
2023-02-12T13:05:52.339Z,44.17
2023-02-12T13:08:05.810Z,44.34
2023-02-12T13:10:29.393Z,44.04
2023-02-12T13:12:57.831Z,44.43
2023-02-12T13:15:08.985Z,44.44
2023-02-12T13:17:23.377Z,45.22
2023-02-12T13:19:34.349Z,44.83
2023-02-12T13:22:01.250Z,44.79
2023-02-12T13:24:11.928Z,44.70
2023-02-12T13:26:45.317Z,44.46
2023-02-12T13:28:54.207Z,44.25
2023-02-12T13:30:56.923Z,44.34
2023-02-12T13:33:07.322Z,44.66
2023-02-12T13:35:16.956Z,44.09
2023-02-12T13:37:35.606Z,44.65
2023-02-12T13:39:43.902Z,44.64
2023-02-12T13:41:57.695Z,44.31
2023-02-12T13:44:18.605Z,43.84
2023-02-12T13:46:32.495Z,44.14
2023-02-12T13:48:47.132Z,44.43
2023-02-12T13:51:07.359Z,44.46
2023-02-12T13:53:46.702Z,43.56
2023-02-12T13:56:27.837Z,43.58
2023-02-12T13:58:39.051Z,43.81
2023-02-12T14:00:52.848Z,43.23
2023-02-12T14:02:56.011Z,43.94
2023-02-12T14:05:03.176Z,43.70
2023-02-12T14:07:12.938Z,43.91
2023-02-12T14:09:23.990Z,44.00
2023-02-12T14:11:27.252Z,44.30
2023-02-12T14:13:34.330Z,44.19
2023-02-12T14:15:40.196Z,44.20
2023-02-12T14:17:52.125Z,44.39
2023-02-12T14:19:56.866Z,43.83
2023-02-12T14:22:09.943Z,43.68
2023-02-12T14:24:36.684Z,43.15
2023-02-12T14:26:38.947Z,43.83
2023-02-12T14:28:59.071Z,43.67
2023-02-12T14:31:21.433Z,44.09
2023-02-12T14:33:27.297Z,44.24
2023-02-12T14:35:42.504Z,43.30
2023-02-12T14:37:44.651Z,44.00
2023-02-12T14:39:47.229Z,43.73
2023-02-12T14:41:51.913Z,43.74
2023-02-12T14:44:29.650Z,43.86
2023-02-12T14:46:38.014Z,44.51
2023-02-12T14:48:50.865Z,44.03
2023-02-12T14:50:53.670Z,44.04
2023-02-12T14:53:27.713Z,44.33
2023-02-12T14:55:35.047Z,44.20
2023-02-12T14:57:40.768Z,44.09
2023-02-12T14:59:45.038Z,44.04
2023-02-12T15:01:48.460Z,44.49
2023-02-12T15:03:55.176Z,44.44
2023-02-12T15:06:13.674Z,44.55
2023-02-12T15:08:32.923Z,44.48
2023-02-12T15:10:41.459Z,44.58
2023-02-12T15:13:02.412Z,44.40
2023-02-12T15:15:19.079Z,44.14
2023-02-12T15:17:32.716Z,44.56
2023-02-12T15:19:56.312Z,44.49
2023-02-12T15:21:58.912Z,44.62
2023-02-12T15:24:08.636Z,44.67
2023-02-12T15:26:20.667Z,44.32
2023-02-12T15:28:33.597Z,44.42
2023-02-12T15:30:37.595Z,44.40
2023-02-12T15:32:40.603Z,44.96
2023-02-12T15:34:43.312Z,45.14
2023-02-12T15:36:46.617Z,44.95
2023-02-12T15:38:52.716Z,45.17
2023-02-12T15:41:00.352Z,45.26
2023-02-12T15:43:07.747Z,44.92
2023-02-12T15:45:18.334Z,44.86
2023-02-12T15:47:24.878Z,44.81
2023-02-12T15:49:29.704Z,45.17
2023-02-12T15:51:41.723Z,45.16
2023-02-12T15:53:48.564Z,45.21
2023-02-12T15:55:58.020Z,44.75
2023-02-12T15:58:02.047Z,44.69
2023-02-12T16:00:14.193Z,44.84
2023-02-12T16:02:34.583Z,44.51
2023-02-12T16:04:38.121Z,44.97
2023-02-12T16:06:41.885Z,44.86
2023-02-12T16:08:47.019Z,44.93
2023-02-12T16:10:52.700Z,44.97
2023-02-12T16:12:55.521Z,45.01
2023-02-12T16:15:00.625Z,45.19
2023-02-12T16:17:03.001Z,45.02
2023-02-12T16:19:18.860Z,44.85
2023-02-12T16:21:23.663Z,45.34
2023-02-12T16:23:25.754Z,44.86
2023-02-12T16:25:30.961Z,44.93
2023-02-12T16:27:35.207Z,44.94
2023-02-12T16:29:44.858Z,44.87
2023-02-12T16:31:59.957Z,44.80
2023-02-12T16:34:02.065Z,44.83
2023-02-12T16:36:30.533Z,45.27
2023-02-12T16:38:47.301Z,45.00
2023-02-12T16:41:11.957Z,45.01
2023-02-12T16:43:26.902Z,45.29
2023-02-12T16:45:28.992Z,45.25
2023-02-12T16:47:30.997Z,45.13
2023-02-12T16:49:33.062Z,45.39
2023-02-12T16:51:37.161Z,45.37
2023-02-12T16:53:45.693Z,45.73
2023-02-12T16:55:47.835Z,45.44
2023-02-12T16:57:49.702Z,45.58
2023-02-12T16:59:51.892Z,45.56
2023-02-12T17:02:03.118Z,45.35
2023-02-12T17:04:08.830Z,45.62
2023-02-12T17:06:11.925Z,45.57
2023-02-12T17:08:16.762Z,45.83
2023-02-12T17:10:19.049Z,45.91
2023-02-12T17:12:21.454Z,45.61
2023-02-12T17:14:24.788Z,45.63
2023-02-12T17:16:35.988Z,45.83
2023-02-12T17:18:38.836Z,46.07
2023-02-12T17:20:41.522Z,46.13
2023-02-12T17:22:52.782Z,46.18
2023-02-12T17:24:54.943Z,46.69
2023-02-12T17:26:57.654Z,46.35
2023-02-12T17:29:05.561Z,46.65
2023-02-12T17:31:09.912Z,46.65
2023-02-12T17:33:12.286Z,46.76
2023-02-12T17:35:14.443Z,47.13
2023-02-12T17:37:20.878Z,46.67
2023-02-12T17:39:22.913Z,46.67
2023-02-12T17:41:25.690Z,47.03
2023-02-12T17:43:28.056Z,47.21
2023-02-12T17:45:33.616Z,46.90
2023-02-12T17:47:40.288Z,47.08
2023-02-12T17:49:45.047Z,47.49
2023-02-12T17:51:48.417Z,47.54
2023-02-12T17:54:02.856Z,47.67
2023-02-12T17:56:11.034Z,47.71
2023-02-12T17:58:13.258Z,47.15
2023-02-12T18:00:17.831Z,48.08
2023-02-12T18:02:24.674Z,47.87
2023-02-12T18:04:27.179Z,47.91
2023-02-12T18:06:31.229Z,47.96
2023-02-12T18:08:33.873Z,47.85
2023-02-12T18:10:43.655Z,48.15
2023-02-12T18:12:46.117Z,47.90
2023-02-12T18:14:48.771Z,47.89
2023-02-12T18:16:50.919Z,47.78
2023-02-12T18:18:53.170Z,48.11
2023-02-12T18:20:55.703Z,47.74
2023-02-12T18:23:00.527Z,48.01
2023-02-12T18:25:02.636Z,47.72
2023-02-12T18:27:04.817Z,47.68
2023-02-12T18:29:07.021Z,47.57
2023-02-12T18:31:10.028Z,47.74
2023-02-12T18:33:12.863Z,48.11
2023-02-12T18:35:16.063Z,48.39
2023-02-12T18:37:18.583Z,48.17
2023-02-12T18:39:20.632Z,48.21
2023-02-12T18:41:25.640Z,48.69
2023-02-12T18:43:28.345Z,48.59
2023-02-12T18:45:30.299Z,48.40
2023-02-12T18:47:32.588Z,48.08
2023-02-12T18:49:37.775Z,48.23
2023-02-12T18:51:41.294Z,48.40
2023-02-12T18:53:43.788Z,48.25
2023-02-12T18:55:46.555Z,48.03
2023-02-12T18:57:48.933Z,48.00
2023-02-12T18:59:51.195Z,47.83
2023-02-12T19:01:53.565Z,48.31
2023-02-12T19:03:59.137Z,48.27
2023-02-12T19:06:04.974Z,48.27
2023-02-12T19:08:07.606Z,48.24
2023-02-12T19:10:10.025Z,48.49
2023-02-12T19:12:12.066Z,48.19
2023-02-12T19:14:16.163Z,48.53
2023-02-12T19:16:21.426Z,48.11
2023-02-12T19:18:25.126Z,47.93
2023-02-12T19:20:27.179Z,47.93
2023-02-12T19:22:29.426Z,48.39
2023-02-12T19:24:45.615Z,48.55
2023-02-12T19:26:52.007Z,48.61
2023-02-12T19:28:54.350Z,48.66
2023-02-12T19:30:59.593Z,48.62
2023-02-12T19:33:05.567Z,48.74
2023-02-12T19:35:08.612Z,48.84
2023-02-12T19:37:11.800Z,48.49
2023-02-12T19:39:15.948Z,48.55
2023-02-12T19:41:20.980Z,48.76
2023-02-12T19:43:22.998Z,48.70
2023-02-12T19:45:24.976Z,48.79
2023-02-12T19:47:27.087Z,48.62
2023-02-12T19:49:29.835Z,48.73
2023-02-12T19:51:32.039Z,48.61
2023-02-12T19:53:34.289Z,48.69
2023-02-12T19:55:36.457Z,48.79
2023-02-12T19:57:38.946Z,48.74
2023-02-12T19:59:41.884Z,48.96
2023-02-12T20:01:44.536Z,49.21
2023-02-12T20:03:48.981Z,49.40
2023-02-12T20:05:53.335Z,49.25
2023-02-12T20:07:55.458Z,49.57
2023-02-12T20:09:57.663Z,49.44
2023-02-12T20:12:00.146Z,50.15
2023-02-12T20:14:02.474Z,50.31
2023-02-12T20:16:06.578Z,49.74
2023-02-12T20:18:09.043Z,49.62
2023-02-12T20:20:11.742Z,49.61
2023-02-12T20:22:14.050Z,49.70
2023-02-12T20:24:16.241Z,49.82
2023-02-12T20:26:20.097Z,49.62
2023-02-12T20:28:22.910Z,49.66
2023-02-12T20:30:25.339Z,50.14
2023-02-12T20:32:27.523Z,49.80
2023-02-12T20:34:32.945Z,49.99
2023-02-12T20:36:40.899Z,50.22
2023-02-12T20:38:44.967Z,49.94
2023-02-12T20:40:47.519Z,49.86
2023-02-12T20:42:49.760Z,50.14
2023-02-12T20:44:51.847Z,50.16
2023-02-12T20:46:57.327Z,50.39
2023-02-12T20:48:59.621Z,50.31
2023-02-12T20:51:13.411Z,50.57
2023-02-12T20:53:15.491Z,50.25
2023-02-12T20:55:17.730Z,50.50
2023-02-12T20:57:19.834Z,50.15
2023-02-12T20:59:22.059Z,50.22
2023-02-12T21:01:26.959Z,51.38
2023-02-12T21:03:29.474Z,52.29
2023-02-12T21:05:33.057Z,52.45
2023-02-12T21:07:35.581Z,52.16
2023-02-12T21:09:39.570Z,52.09
2023-02-12T21:11:45.732Z,52.77
2023-02-12T21:13:58.991Z,52.33
2023-02-12T21:16:11.445Z,53.21
2023-02-12T21:18:13.835Z,53.08
2023-02-12T21:20:16.032Z,52.77
2023-02-12T21:22:18.558Z,52.75
2023-02-12T21:24:24.260Z,52.58
2023-02-12T21:26:29.612Z,52.05
2023-02-12T21:28:32.972Z,51.91
2023-02-12T21:30:35.131Z,52.12
2023-02-12T21:32:37.211Z,51.98
2023-02-12T21:34:40.300Z,52.25
2023-02-12T21:36:45.378Z,52.13
2023-02-12T21:38:49.364Z,51.53
2023-02-12T21:40:51.869Z,52.02
2023-02-12T21:42:55.646Z,51.76
2023-02-12T21:44:57.781Z,51.94
2023-02-12T21:47:00.284Z,51.92
2023-02-12T21:49:03.525Z,51.77
2023-02-12T21:51:06.454Z,51.59
2023-02-12T21:53:08.753Z,51.77
2023-02-12T21:55:10.885Z,51.34
2023-02-12T21:57:18.627Z,51.66
2023-02-12T21:59:21.301Z,51.68
2023-02-12T22:01:26.772Z,52.32
2023-02-12T22:03:29.561Z,52.28
2023-02-12T22:05:34.979Z,53.06
2023-02-12T22:07:37.130Z,52.43
2023-02-12T22:09:39.792Z,52.76
2023-02-12T22:11:42.751Z,52.28
2023-02-12T22:13:45.705Z,52.84
2023-02-12T22:15:47.961Z,52.28
2023-02-12T22:17:50.268Z,52.17
2023-02-12T22:19:52.399Z,52.09
2023-02-12T22:21:54.611Z,52.07
2023-02-12T22:23:57.664Z,52.18
2023-02-12T22:26:11.557Z,52.21
2023-02-12T22:28:13.528Z,51.93
2023-02-12T22:30:16.852Z,52.00
2023-02-12T22:32:19.717Z,51.87
2023-02-12T22:34:21.864Z,51.71
2023-02-12T22:36:27.338Z,51.84
2023-02-12T22:38:29.905Z,52.10
2023-02-12T22:40:31.923Z,52.07
2023-02-12T22:42:33.955Z,51.88
2023-02-12T22:44:36.531Z,51.90
2023-02-12T22:46:38.819Z,51.65
2023-02-12T22:48:41.206Z,51.73
2023-02-12T22:50:43.278Z,51.82
2023-02-12T22:52:47.571Z,51.77
2023-02-12T22:54:49.941Z,51.67
2023-02-12T22:56:58.625Z,51.84
2023-02-12T22:59:02.068Z,51.84
2023-02-12T23:01:09.315Z,52.02
2023-02-12T23:03:11.548Z,52.07
2023-02-12T23:05:13.720Z,52.51
2023-02-12T23:07:16.376Z,52.65
2023-02-12T23:09:22.155Z,53.03
2023-02-12T23:11:26.295Z,52.97
2023-02-12T23:13:30.198Z,52.90
2023-02-12T23:15:51.957Z,53.30
2023-02-12T23:17:58.244Z,52.81
2023-02-12T23:20:01.184Z,52.94
2023-02-12T23:22:04.153Z,53.75
2023-02-12T23:24:17.782Z,53.46
2023-02-12T23:26:28.834Z,53.23
2023-02-12T23:28:37.408Z,53.84
2023-02-12T23:30:47.219Z,53.48
2023-02-12T23:32:53.112Z,53.87
2023-02-12T23:34:56.448Z,54.65
2023-02-12T23:37:13.845Z,54.96
2023-02-12T23:39:20.028Z,54.11
2023-02-12T23:41:25.391Z,54.59
2023-02-12T23:45:59.767Z,54.41
2023-02-12T23:48:53.145Z,54.35
2023-02-12T23:50:56.874Z,54.50
2023-02-12T23:53:03.292Z,54.85
2023-02-12T23:55:05.837Z,54.77
2023-02-12T23:57:07.771Z,54.94
2023-02-12T23:59:10.280Z,54.83
